sensor_id;sensor_type;location;lat;lon;timestamp;temperature;humidity
22676;DHT22;12521;43.310;21.876;2024-01-11T00:01:56;-3.6;96.0
22676;DHT22;12521;43.310;21.876;2024-01-11T00:06:32;-3.6;96.0
22676;DHT22;12521;43.310;21.876;2024-01-11T00:11:17;-3.7;96.0
22676;DHT22;12521;43.310;21.876;2024-01-11T00:15:53;-3.7;96.0
22676;DHT22;12521;43.310;21.876;2024-01-11T00:20:30;-3.7;96.0
22676;DHT22;12521;43.310;21.876;2024-01-11T00:25:08;-3.7;96.0
22676;DHT22;12521;43.310;21.876;2024-01-11T00:29:44;-3.7;96.0
22676;DHT22;12521;43.310;21.876;2024-01-11T00:34:21;-3.7;96.0
22676;DHT22;12521;43.310;21.876;2024-01-11T00:38:57;-3.7;96.0
22676;DHT22;12521;43.310;21.876;2024-01-11T00:43:33;-3.8;96.0
22676;DHT22;12521;43.310;21.876;2024-01-11T00:48:09;-3.8;96.0
22676;DHT22;12521;43.310;21.876;2024-01-11T00:52:45;-3.9;96.0
22676;DHT22;12521;43.310;21.876;2024-01-11T00:57:22;-3.9;96.0
22676;DHT22;12521;43.310;21.876;2024-01-11T01:01:58;-4.0;96.0
22676;DHT22;12521;43.310;21.876;2024-01-11T01:06:34;-4.0;96.0
22676;DHT22;12521;43.310;21.876;2024-01-11T01:11:11;-4.2;96.0
22676;DHT22;12521;43.310;21.876;2024-01-11T01:15:48;-4.2;96.0
22676;DHT22;12521;43.310;21.876;2024-01-11T01:20:24;-4.2;96.0
22676;DHT22;12521;43.310;21.876;2024-01-11T01:25:03;-4.2;96.0
22676;DHT22;12521;43.310;21.876;2024-01-11T01:29:42;-4.2;96.0
22676;DHT22;12521;43.310;21.876;2024-01-11T01:34:19;-4.2;96.0
22676;DHT22;12521;43.310;21.876;2024-01-11T01:38:56;-4.2;96.0
22676;DHT22;12521;43.310;21.876;2024-01-11T01:43:33;-4.2;96.0
22676;DHT22;12521;43.310;21.876;2024-01-11T01:48:09;-4.2;96.0
22676;DHT22;12521;43.310;21.876;2024-01-11T01:52:48;-4.2;96.0
22676;DHT22;12521;43.310;21.876;2024-01-11T01:57:28;-4.2;96.0
22676;DHT22;12521;43.310;21.876;2024-01-11T02:02:10;-4.2;96.0
22676;DHT22;12521;43.310;21.876;2024-01-11T02:06:49;-4.2;96.0
22676;DHT22;12521;43.310;21.876;2024-01-11T02:11:30;-4.3;96.0
22676;DHT22;12521;43.310;21.876;2024-01-11T02:16:06;-4.3;96.0
22676;DHT22;12521;43.310;21.876;2024-01-11T02:20:43;-4.3;96.0
22676;DHT22;12521;43.310;21.876;2024-01-11T02:25:19;-4.4;96.0
22676;DHT22;12521;43.310;21.876;2024-01-11T02:29:56;-4.4;96.0
22676;DHT22;12521;43.310;21.876;2024-01-11T02:34:33;-4.4;96.0
22676;DHT22;12521;43.310;21.876;2024-01-11T02:39:16;-4.4;96.0
22676;DHT22;12521;43.310;21.876;2024-01-11T02:44:00;-4.4;96.0
22676;DHT22;12521;43.310;21.876;2024-01-11T02:48:37;-4.4;96.0
22676;DHT22;12521;43.310;21.876;2024-01-11T02:53:13;-4.5;96.0
22676;DHT22;12521;43.310;21.876;2024-01-11T02:57:50;-4.5;96.0
22676;DHT22;12521;43.310;21.876;2024-01-11T03:02:26;-4.5;96.0
22676;DHT22;12521;43.310;21.876;2024-01-11T03:07:03;-4.5;96.0
22676;DHT22;12521;43.310;21.876;2024-01-11T03:11:39;-4.5;96.0
22676;DHT22;12521;43.310;21.876;2024-01-11T03:16:16;-4.5;96.0
22676;DHT22;12521;43.310;21.876;2024-01-11T03:20:52;-4.5;96.0
22676;DHT22;12521;43.310;21.876;2024-01-11T03:25:29;-4.6;96.0
22676;DHT22;12521;43.310;21.876;2024-01-11T03:30:07;-4.6;96.0
22676;DHT22;12521;43.310;21.876;2024-01-11T03:34:45;-4.7;96.0
22676;DHT22;12521;43.310;21.876;2024-01-11T03:39:21;-4.7;96.0
22676;DHT22;12521;43.310;21.876;2024-01-11T03:44:00;-4.8;96.0
22676;DHT22;12521;43.310;21.876;2024-01-11T03:48:37;-4.8;96.0
22676;DHT22;12521;43.310;21.876;2024-01-11T03:53:13;-4.8;96.0
22676;DHT22;12521;43.310;21.876;2024-01-11T03:57:50;-4.8;96.0
22676;DHT22;12521;43.310;21.876;2024-01-11T04:02:28;-4.8;96.0
22676;DHT22;12521;43.310;21.876;2024-01-11T04:07:05;-4.8;96.0
22676;DHT22;12521;43.310;21.876;2024-01-11T04:11:41;-4.9;96.0
22676;DHT22;12521;43.310;21.876;2024-01-11T04:16:18;-4.9;96.0
22676;DHT22;12521;43.310;21.876;2024-01-11T04:20:56;-4.9;96.0
22676;DHT22;12521;43.310;21.876;2024-01-11T04:25:33;-4.9;96.0
22676;DHT22;12521;43.310;21.876;2024-01-11T04:30:11;-4.9;96.0
22676;DHT22;12521;43.310;21.876;2024-01-11T04:34:49;-4.9;96.0
22676;DHT22;12521;43.310;21.876;2024-01-11T04:39:25;-4.9;96.0
22676;DHT22;12521;43.310;21.876;2024-01-11T04:44:01;-5.0;96.0
22676;DHT22;12521;43.310;21.876;2024-01-11T04:48:38;-5.0;96.0
22676;DHT22;12521;43.310;21.876;2024-01-11T04:53:14;-5.0;96.0
22676;DHT22;12521;43.310;21.876;2024-01-11T04:57:50;-5.0;96.0
22676;DHT22;12521;43.310;21.876;2024-01-11T05:02:26;-5.0;96.0
22676;DHT22;12521;43.310;21.876;2024-01-11T05:07:03;-5.0;96.0
22676;DHT22;12521;43.310;21.876;2024-01-11T05:11:40;-5.0;96.0
22676;DHT22;12521;43.310;21.876;2024-01-11T05:16:20;-5.0;96.0
22676;DHT22;12521;43.310;21.876;2024-01-11T05:21:01;-5.0;96.0
22676;DHT22;12521;43.310;21.876;2024-01-11T05:25:39;-5.0;96.0
22676;DHT22;12521;43.310;21.876;2024-01-11T05:30:15;-5.0;96.0
22676;DHT22;12521;43.310;21.876;2024-01-11T05:34:52;-5.0;96.0
22676;DHT22;12521;43.310;21.876;2024-01-11T05:39:28;-5.0;96.0
22676;DHT22;12521;43.310;21.876;2024-01-11T05:44:05;-5.0;96.0
22676;DHT22;12521;43.310;21.876;2024-01-11T05:48:42;-5.0;96.0
22676;DHT22;12521;43.310;21.876;2024-01-11T05:53:18;-5.1;96.0
22676;DHT22;12521;43.310;21.876;2024-01-11T05:57:55;-5.1;96.0
22676;DHT22;12521;43.310;21.876;2024-01-11T06:02:31;-5.1;96.0
22676;DHT22;12521;43.310;21.876;2024-01-11T06:07:07;-5.1;96.0
22676;DHT22;12521;43.310;21.876;2024-01-11T06:11:43;-5.1;96.0
22676;DHT22;12521;43.310;21.876;2024-01-11T06:16:19;-5.1;96.0
22676;DHT22;12521;43.310;21.876;2024-01-11T06:20:56;-5.1;96.0
22676;DHT22;12521;43.310;21.876;2024-01-11T06:25:32;-5.2;96.0
22676;DHT22;12521;43.310;21.876;2024-01-11T06:30:10;-5.2;96.0
22676;DHT22;12521;43.310;21.876;2024-01-11T06:34:49;-5.3;96.0
22676;DHT22;12521;43.310;21.876;2024-01-11T06:39:26;-5.3;96.0
22676;DHT22;12521;43.310;21.876;2024-01-11T06:44:03;-5.3;96.0
22676;DHT22;12521;43.310;21.876;2024-01-11T06:48:40;-5.3;96.0
22676;DHT22;12521;43.310;21.876;2024-01-11T06:53:17;-5.3;96.0
22676;DHT22;12521;43.310;21.876;2024-01-11T06:57:53;-5.3;96.0
22676;DHT22;12521;43.310;21.876;2024-01-11T07:02:30;-5.2;96.0
22676;DHT22;12521;43.310;21.876;2024-01-11T07:07:07;-5.2;96.0
22676;DHT22;12521;43.310;21.876;2024-01-11T07:11:43;-5.2;96.0
22676;DHT22;12521;43.310;21.876;2024-01-11T07:16:20;-5.2;96.0
22676;DHT22;12521;43.310;21.876;2024-01-11T07:20:57;-5.2;96.0
22676;DHT22;12521;43.310;21.876;2024-01-11T07:25:35;-5.1;96.0
22676;DHT22;12521;43.310;21.876;2024-01-11T07:30:13;-5.1;96.0
22676;DHT22;12521;43.310;21.876;2024-01-11T07:34:50;-5.0;96.0
22676;DHT22;12521;43.310;21.876;2024-01-11T07:39:26;-5.0;96.0
22676;DHT22;12521;43.310;21.876;2024-01-11T07:44:02;-4.8;96.0
22676;DHT22;12521;43.310;21.876;2024-01-11T07:48:39;-4.8;96.0
22676;DHT22;12521;43.310;21.876;2024-01-11T07:53:15;-4.7;96.0
22676;DHT22;12521;43.310;21.876;2024-01-11T07:57:51;-4.7;96.0
22676;DHT22;12521;43.310;21.876;2024-01-11T08:02:28;-4.6;96.0
22676;DHT22;12521;43.310;21.876;2024-01-11T08:07:04;-4.6;96.0
22676;DHT22;12521;43.310;21.876;2024-01-11T08:11:41;-4.6;96.0
22676;DHT22;12521;43.310;21.876;2024-01-11T08:16:18;-4.6;96.0
22676;DHT22;12521;43.310;21.876;2024-01-11T08:20:54;-4.6;96.0
22676;DHT22;12521;43.310;21.876;2024-01-11T08:25:31;-4.6;96.0
22676;DHT22;12521;43.310;21.876;2024-01-11T08:30:08;-4.6;96.0
22676;DHT22;12521;43.310;21.876;2024-01-11T08:34:45;-4.5;96.0
22676;DHT22;12521;43.310;21.876;2024-01-11T08:39:21;-4.5;96.0
22676;DHT22;12521;43.310;21.876;2024-01-11T08:43:58;-4.2;96.0
22676;DHT22;12521;43.310;21.876;2024-01-11T08:48:35;-4.2;96.0
22676;DHT22;12521;43.310;21.876;2024-01-11T08:53:11;-4.0;96.0
22676;DHT22;12521;43.310;21.876;2024-01-11T08:57:47;-4.0;96.0
22676;DHT22;12521;43.310;21.876;2024-01-11T09:02:23;-3.8;96.0
22676;DHT22;12521;43.310;21.876;2024-01-11T09:06:59;-3.8;96.0
22676;DHT22;12521;43.310;21.876;2024-01-11T09:11:36;-3.8;96.0
22676;DHT22;12521;43.310;21.876;2024-01-11T09:16:15;-3.5;96.0
22676;DHT22;12521;43.310;21.876;2024-01-11T09:20:52;-3.5;96.0
22676;DHT22;12521;43.310;21.876;2024-01-11T09:25:28;-3.4;96.0
22676;DHT22;12521;43.310;21.876;2024-01-11T09:30:07;-3.4;96.0
22676;DHT22;12521;43.310;21.876;2024-01-11T09:34:46;-3.2;96.0
22676;DHT22;12521;43.310;21.876;2024-01-11T09:39:22;-3.2;96.0
22676;DHT22;12521;43.310;21.876;2024-01-11T09:44:03;-3.0;96.0
22676;DHT22;12521;43.310;21.876;2024-01-11T09:48:43;-3.0;96.0
22676;DHT22;12521;43.310;21.876;2024-01-11T09:53:29;-2.8;96.0
22676;DHT22;12521;43.310;21.876;2024-01-11T09:58:10;-2.8;96.0
22676;DHT22;12521;43.310;21.876;2024-01-11T10:02:49;-2.6;96.0
22676;DHT22;12521;43.310;21.876;2024-01-11T10:07:26;-2.6;96.0
22676;DHT22;12521;43.310;21.876;2024-01-11T10:12:09;-2.5;96.0
22676;DHT22;12521;43.310;21.876;2024-01-11T10:16:48;-2.5;96.0
22676;DHT22;12521;43.310;21.876;2024-01-11T10:21:24;-2.5;96.0
22676;DHT22;12521;43.310;21.876;2024-01-11T10:26:03;-2.5;96.0
22676;DHT22;12521;43.310;21.876;2024-01-11T10:30:40;-2.5;96.0
22676;DHT22;12521;43.310;21.876;2024-01-11T10:44:55;-1.6;96.0
22676;DHT22;12521;43.310;21.876;2024-01-11T10:49:44;-1.6;96.0
22676;DHT22;12521;43.310;21.876;2024-01-11T10:54:26;-1.6;96.0
22676;DHT22;12521;43.310;21.876;2024-01-11T10:59:04;-1.6;96.0
22676;DHT22;12521;43.310;21.876;2024-01-11T11:03:45;-1.4;96.0
22676;DHT22;12521;43.310;21.876;2024-01-11T11:08:24;-1.4;96.0
22676;DHT22;12521;43.310;21.876;2024-01-11T11:13:03;-1.2;96.0
22676;DHT22;12521;43.310;21.876;2024-01-11T11:17:43;-1.2;96.0
22676;DHT22;12521;43.310;21.876;2024-01-11T11:22:19;-1.1;96.0
22676;DHT22;12521;43.310;21.876;2024-01-11T11:26:56;-1.1;96.0
22676;DHT22;12521;43.310;21.876;2024-01-11T11:31:41;-1.1;96.0
22676;DHT22;12521;43.310;21.876;2024-01-11T11:36:17;-1.0;96.0
22676;DHT22;12521;43.310;21.876;2024-01-11T11:41:00;-1.0;96.0
22676;DHT22;12521;43.310;21.876;2024-01-11T11:45:40;-0.8;96.0
22676;DHT22;12521;43.310;21.876;2024-01-11T11:50:16;-0.8;96.0
22676;DHT22;12521;43.310;21.876;2024-01-11T11:54:57;-0.7;96.0
22676;DHT22;12521;43.310;21.876;2024-01-11T11:59:37;-0.7;96.0
22676;DHT22;12521;43.310;21.876;2024-01-11T12:04:14;-0.6;96.0
22676;DHT22;12521;43.310;21.876;2024-01-11T12:08:55;-0.6;96.0
22676;DHT22;12521;43.310;21.876;2024-01-11T12:13:32;-0.6;96.0
22676;DHT22;12521;43.310;21.876;2024-01-11T12:18:10;-0.6;96.0
22676;DHT22;12521;43.310;21.876;2024-01-11T12:22:47;-0.6;96.0
22676;DHT22;12521;43.310;21.876;2024-01-11T12:27:24;-0.6;96.0
22676;DHT22;12521;43.310;21.876;2024-01-11T12:32:01;-0.6;96.0
22676;DHT22;12521;43.310;21.876;2024-01-11T12:36:40;-0.6;96.0
22676;DHT22;12521;43.310;21.876;2024-01-11T12:41:17;-0.6;96.0
22676;DHT22;12521;43.310;21.876;2024-01-11T12:45:55;-0.5;96.0
22676;DHT22;12521;43.310;21.876;2024-01-11T12:50:33;-0.5;96.0
22676;DHT22;12521;43.310;21.876;2024-01-11T12:55:20;-0.4;96.0
22676;DHT22;12521;43.310;21.876;2024-01-11T13:00:13;-0.4;96.0
22676;DHT22;12521;43.310;21.876;2024-01-11T13:04:51;-0.4;96.0
22676;DHT22;12521;43.310;21.876;2024-01-11T13:09:27;-0.4;96.0
22676;DHT22;12521;43.310;21.876;2024-01-11T13:14:03;-0.3;96.0
22676;DHT22;12521;43.310;21.876;2024-01-11T13:18:40;-0.3;96.0
22676;DHT22;12521;43.310;21.876;2024-01-11T13:23:20;-0.2;96.0
22676;DHT22;12521;43.310;21.876;2024-01-11T13:27:57;-0.2;96.0
22676;DHT22;12521;43.310;21.876;2024-01-11T13:32:33;-0.2;96.0
22676;DHT22;12521;43.310;21.876;2024-01-11T13:37:10;-0.2;96.0
22676;DHT22;12521;43.310;21.876;2024-01-11T13:41:46;-0.2;96.0
22676;DHT22;12521;43.310;21.876;2024-01-11T13:46:23;-0.2;96.0
22676;DHT22;12521;43.310;21.876;2024-01-11T13:50:59;-0.2;96.0
22676;DHT22;12521;43.310;21.876;2024-01-11T13:55:36;-0.2;96.0
22676;DHT22;12521;43.310;21.876;2024-01-11T14:00:15;-0.2;96.0
22676;DHT22;12521;43.310;21.876;2024-01-11T14:04:51;-0.2;96.0
22676;DHT22;12521;43.310;21.876;2024-01-11T14:09:27;-0.2;96.0
22676;DHT22;12521;43.310;21.876;2024-01-11T14:14:03;-0.3;96.0
22676;DHT22;12521;43.310;21.876;2024-01-11T14:18:39;-0.3;96.0
22676;DHT22;12521;43.310;21.876;2024-01-11T14:23:16;-0.4;96.0
22676;DHT22;12521;43.310;21.876;2024-01-11T14:27:52;-0.4;96.0
22676;DHT22;12521;43.310;21.876;2024-01-11T14:32:29;-0.4;96.0
22676;DHT22;12521;43.310;21.876;2024-01-11T14:37:05;-0.4;96.0
22676;DHT22;12521;43.310;21.876;2024-01-11T14:41:41;-0.4;96.0
22676;DHT22;12521;43.310;21.876;2024-01-11T14:46:18;-0.5;96.0
22676;DHT22;12521;43.310;21.876;2024-01-11T14:50:54;-0.5;96.0
22676;DHT22;12521;43.310;21.876;2024-01-11T14:55:30;-0.6;96.0
22676;DHT22;12521;43.310;21.876;2024-01-11T15:00:12;-0.6;96.0
22676;DHT22;12521;43.310;21.876;2024-01-11T15:04:50;-0.6;96.0
22676;DHT22;12521;43.310;21.876;2024-01-11T15:09:27;-0.6;96.0
22676;DHT22;12521;43.310;21.876;2024-01-11T15:14:04;-0.7;96.0
22676;DHT22;12521;43.310;21.876;2024-01-11T15:18:40;-0.7;96.0
22676;DHT22;12521;43.310;21.876;2024-01-11T15:23:16;-0.8;96.0
22676;DHT22;12521;43.310;21.876;2024-01-11T15:27:54;-0.8;96.0
22676;DHT22;12521;43.310;21.876;2024-01-11T15:32:30;-0.9;96.0
22676;DHT22;12521;43.310;21.876;2024-01-11T15:37:07;-0.9;96.0
22676;DHT22;12521;43.310;21.876;2024-01-11T15:41:46;-0.9;96.0
22676;DHT22;12521;43.310;21.876;2024-01-11T15:46:24;-1.0;96.0
22676;DHT22;12521;43.310;21.876;2024-01-11T15:51:00;-1.0;96.0
22676;DHT22;12521;43.310;21.876;2024-01-11T15:55:36;-1.1;96.0
22676;DHT22;12521;43.310;21.876;2024-01-11T16:00:15;-1.1;96.0
22676;DHT22;12521;43.310;21.876;2024-01-11T16:04:52;-1.2;96.0
22676;DHT22;12521;43.310;21.876;2024-01-11T16:09:28;-1.2;96.0
22676;DHT22;12521;43.310;21.876;2024-01-11T16:14:05;-1.3;96.0
22676;DHT22;12521;43.310;21.876;2024-01-11T16:18:41;-1.3;96.0
22676;DHT22;12521;43.310;21.876;2024-01-11T16:23:18;-1.4;96.0
22676;DHT22;12521;43.310;21.876;2024-01-11T16:27:54;-1.4;96.0
22676;DHT22;12521;43.310;21.876;2024-01-11T16:32:31;-1.5;96.0
22676;DHT22;12521;43.310;21.876;2024-01-11T16:37:08;-1.5;96.0
22676;DHT22;12521;43.310;21.876;2024-01-11T16:41:44;-1.5;96.0
22676;DHT22;12521;43.310;21.876;2024-01-11T16:46:21;-1.7;96.0
22676;DHT22;12521;43.310;21.876;2024-01-11T16:50:57;-1.7;96.0
22676;DHT22;12521;43.310;21.876;2024-01-11T16:55:33;-1.9;96.0
22676;DHT22;12521;43.310;21.876;2024-01-11T17:00:12;-1.9;96.0
22676;DHT22;12521;43.310;21.876;2024-01-11T17:04:49;-2.0;96.0
22676;DHT22;12521;43.310;21.876;2024-01-11T17:09:25;-2.0;96.0
22676;DHT22;12521;43.310;21.876;2024-01-11T17:14:01;-2.2;96.0
22676;DHT22;12521;43.310;21.876;2024-01-11T17:18:37;-2.2;96.0
22676;DHT22;12521;43.310;21.876;2024-01-11T17:23:13;-2.2;96.0
22676;DHT22;12521;43.310;21.876;2024-01-11T17:27:50;-2.2;96.0
22676;DHT22;12521;43.310;21.876;2024-01-11T17:32:26;-2.3;96.0
22676;DHT22;12521;43.310;21.876;2024-01-11T17:37:03;-2.3;96.0
22676;DHT22;12521;43.310;21.876;2024-01-11T17:41:40;-2.3;96.0
22676;DHT22;12521;43.310;21.876;2024-01-11T17:46:23;-2.5;96.0
22676;DHT22;12521;43.310;21.876;2024-01-11T17:50:59;-2.5;96.0
22676;DHT22;12521;43.310;21.876;2024-01-11T17:55:35;-2.7;96.0
22676;DHT22;12521;43.310;21.876;2024-01-11T18:00:15;-2.7;96.0
22676;DHT22;12521;43.310;21.876;2024-01-11T18:04:51;-2.8;96.0
22676;DHT22;12521;43.310;21.876;2024-01-11T18:09:27;-2.8;96.0
22676;DHT22;12521;43.310;21.876;2024-01-11T18:14:03;-2.8;96.0
22676;DHT22;12521;43.310;21.876;2024-01-11T18:18:39;-2.8;96.0
22676;DHT22;12521;43.310;21.876;2024-01-11T18:23:15;-2.8;96.0
22676;DHT22;12521;43.310;21.876;2024-01-11T18:27:51;-2.8;96.0
22676;DHT22;12521;43.310;21.876;2024-01-11T18:32:28;-2.9;96.0
22676;DHT22;12521;43.310;21.876;2024-01-11T18:37:04;-2.9;96.0
22676;DHT22;12521;43.310;21.876;2024-01-11T18:41:41;-2.9;96.0
22676;DHT22;12521;43.310;21.876;2024-01-11T18:46:18;-2.9;96.0
22676;DHT22;12521;43.310;21.876;2024-01-11T18:50:55;-2.9;96.0
22676;DHT22;12521;43.310;21.876;2024-01-11T18:55:31;-2.9;96.0
22676;DHT22;12521;43.310;21.876;2024-01-11T19:00:09;-2.9;96.0
22676;DHT22;12521;43.310;21.876;2024-01-11T19:04:46;-3.0;96.0
22676;DHT22;12521;43.310;21.876;2024-01-11T19:09:23;-3.0;96.0
22676;DHT22;12521;43.310;21.876;2024-01-11T19:13:59;-3.1;96.0
22676;DHT22;12521;43.310;21.876;2024-01-11T19:18:35;-3.1;96.0
22676;DHT22;12521;43.310;21.876;2024-01-11T19:23:12;-3.2;96.0
22676;DHT22;12521;43.310;21.876;2024-01-11T19:27:48;-3.2;96.0
22676;DHT22;12521;43.310;21.876;2024-01-11T19:32:24;-3.2;96.0
22676;DHT22;12521;43.310;21.876;2024-01-11T19:37:00;-3.2;96.0
22676;DHT22;12521;43.310;21.876;2024-01-11T19:41:38;-3.2;96.0
22676;DHT22;12521;43.310;21.876;2024-01-11T19:46:17;-3.2;96.0
22676;DHT22;12521;43.310;21.876;2024-01-11T19:50:54;-3.2;96.0
22676;DHT22;12521;43.310;21.876;2024-01-11T19:55:31;-3.3;96.0
22676;DHT22;12521;43.310;21.876;2024-01-11T20:00:11;-3.3;96.0
22676;DHT22;12521;43.310;21.876;2024-01-11T20:04:50;-3.4;96.0
22676;DHT22;12521;43.310;21.876;2024-01-11T20:09:26;-3.4;96.0
22676;DHT22;12521;43.310;21.876;2024-01-11T20:14:02;-3.4;96.0
22676;DHT22;12521;43.310;21.876;2024-01-11T20:18:39;-3.4;96.0
22676;DHT22;12521;43.310;21.876;2024-01-11T20:23:16;-3.6;96.0
22676;DHT22;12521;43.310;21.876;2024-01-11T20:27:53;-3.6;96.0
22676;DHT22;12521;43.310;21.876;2024-01-11T20:32:29;-3.7;96.0
22676;DHT22;12521;43.310;21.876;2024-01-11T20:37:06;-3.7;96.0
22676;DHT22;12521;43.310;21.876;2024-01-11T20:41:45;-3.7;96.0
22676;DHT22;12521;43.310;21.876;2024-01-11T20:46:23;-3.9;96.0
22676;DHT22;12521;43.310;21.876;2024-01-11T20:50:59;-3.9;96.0
22676;DHT22;12521;43.310;21.876;2024-01-11T20:55:35;-4.1;96.0
22676;DHT22;12521;43.310;21.876;2024-01-11T21:00:14;-4.1;96.0
22676;DHT22;12521;43.310;21.876;2024-01-11T21:04:51;-4.2;96.0
22676;DHT22;12521;43.310;21.876;2024-01-11T21:09:27;-4.2;96.0
22676;DHT22;12521;43.310;21.876;2024-01-11T21:14:03;-4.3;96.0
22676;DHT22;12521;43.310;21.876;2024-01-11T21:18:40;-4.3;96.0
22676;DHT22;12521;43.310;21.876;2024-01-11T21:23:16;-4.4;96.0
22676;DHT22;12521;43.310;21.876;2024-01-11T21:27:52;-4.4;96.0
22676;DHT22;12521;43.310;21.876;2024-01-11T21:32:29;-4.5;96.0
22676;DHT22;12521;43.310;21.876;2024-01-11T21:37:05;-4.5;96.0
22676;DHT22;12521;43.310;21.876;2024-01-11T21:41:41;-4.5;96.0
22676;DHT22;12521;43.310;21.876;2024-01-11T21:46:18;-4.5;96.0
22676;DHT22;12521;43.310;21.876;2024-01-11T21:50:55;-4.5;96.0
22676;DHT22;12521;43.310;21.876;2024-01-11T21:55:31;-4.5;96.0
22676;DHT22;12521;43.310;21.876;2024-01-11T22:00:09;-4.5;96.0
22676;DHT22;12521;43.310;21.876;2024-01-11T22:04:47;-4.5;96.0
22676;DHT22;12521;43.310;21.876;2024-01-11T22:09:23;-4.5;96.0
22676;DHT22;12521;43.310;21.876;2024-01-11T22:14:00;-4.5;96.0
22676;DHT22;12521;43.310;21.876;2024-01-11T22:18:37;-4.5;96.0
22676;DHT22;12521;43.310;21.876;2024-01-11T22:23:13;-4.4;96.0
22676;DHT22;12521;43.310;21.876;2024-01-11T22:27:49;-4.4;96.0
22676;DHT22;12521;43.310;21.876;2024-01-11T22:32:26;-4.4;96.0
22676;DHT22;12521;43.310;21.876;2024-01-11T22:37:03;-4.4;96.0
22676;DHT22;12521;43.310;21.876;2024-01-11T22:41:40;-4.4;96.0
22676;DHT22;12521;43.310;21.876;2024-01-11T22:46:16;-4.4;96.0
22676;DHT22;12521;43.310;21.876;2024-01-11T22:50:53;-4.4;96.0
22676;DHT22;12521;43.310;21.876;2024-01-11T22:55:29;-4.5;96.0
22676;DHT22;12521;43.310;21.876;2024-01-11T23:00:08;-4.5;96.0
22676;DHT22;12521;43.310;21.876;2024-01-11T23:04:47;-4.5;96.0
22676;DHT22;12521;43.310;21.876;2024-01-11T23:09:26;-4.5;96.0
22676;DHT22;12521;43.310;21.876;2024-01-11T23:14:03;-4.5;96.0
22676;DHT22;12521;43.310;21.876;2024-01-11T23:18:40;-4.5;96.0
22676;DHT22;12521;43.310;21.876;2024-01-11T23:23:16;-4.5;96.0
22676;DHT22;12521;43.310;21.876;2024-01-11T23:27:52;-4.5;96.0
22676;DHT22;12521;43.310;21.876;2024-01-11T23:32:28;-4.5;96.0
22676;DHT22;12521;43.310;21.876;2024-01-11T23:37:05;-4.5;96.0
22676;DHT22;12521;43.310;21.876;2024-01-11T23:41:41;-4.5;96.0
22676;DHT22;12521;43.310;21.876;2024-01-11T23:46:17;-4.4;96.0
22676;DHT22;12521;43.310;21.876;2024-01-11T23:50:53;-4.4;96.0
22676;DHT22;12521;43.310;21.876;2024-01-11T23:55:29;-4.4;96.0
